createdAt,value
2018-03-21T00:02:04.260Z,3.10
2018-03-21T00:04:31.736Z,3.10
2018-03-21T00:06:59.229Z,3.10
2018-03-21T00:09:26.667Z,3.10
2018-03-21T00:11:54.316Z,3.00
2018-03-21T00:14:21.775Z,3.00
2018-03-21T00:16:49.266Z,3.00
2018-03-21T00:19:16.721Z,2.90
2018-03-21T00:21:44.211Z,3.00
2018-03-21T00:24:11.671Z,2.90
2018-03-21T00:26:39.139Z,2.90
2018-03-21T00:29:06.603Z,2.80
2018-03-21T00:31:34.092Z,2.80
2018-03-21T00:34:01.533Z,2.80
2018-03-21T00:36:28.988Z,2.80
2018-03-21T00:38:56.447Z,2.70
2018-03-21T00:41:23.939Z,2.70
2018-03-21T00:43:51.380Z,2.70
2018-03-21T00:46:18.827Z,2.60
2018-03-21T00:48:46.297Z,2.60
2018-03-21T00:51:13.754Z,2.60
2018-03-21T00:53:41.224Z,2.60
2018-03-21T00:56:08.665Z,2.50
2018-03-21T00:58:36.132Z,2.50
2018-03-21T01:01:04.349Z,2.40
2018-03-21T01:03:31.812Z,2.40
2018-03-21T01:05:59.263Z,2.40
2018-03-21T01:08:26.752Z,2.40
2018-03-21T01:10:54.196Z,2.40
2018-03-21T01:13:21.657Z,2.30
2018-03-21T01:15:49.130Z,2.30
2018-03-21T01:18:16.586Z,2.20
2018-03-21T01:20:44.048Z,2.20
2018-03-21T01:23:12.289Z,2.20
2018-03-21T01:25:39.790Z,2.20
2018-03-21T01:28:08.749Z,2.20
2018-03-21T01:30:36.211Z,2.10
2018-03-21T01:33:03.655Z,2.20
2018-03-21T01:35:31.134Z,2.20
2018-03-21T01:37:58.578Z,2.10
2018-03-21T01:40:26.067Z,2.10
2018-03-21T01:42:54.287Z,2.10
2018-03-21T01:45:21.733Z,2.00
2018-03-21T01:47:49.215Z,2.00
2018-03-21T01:50:16.664Z,2.00
2018-03-21T01:52:44.128Z,2.00
2018-03-21T01:55:11.584Z,2.00
2018-03-21T01:57:39.042Z,1.90
2018-03-21T02:00:06.483Z,1.90
2018-03-21T02:02:33.973Z,1.90
2018-03-21T02:05:01.460Z,1.90
2018-03-21T02:07:29.663Z,1.80
2018-03-21T02:09:57.135Z,1.80
2018-03-21T02:12:24.610Z,1.80
2018-03-21T02:14:52.100Z,1.80
2018-03-21T02:17:20.319Z,1.80
2018-03-21T02:19:47.791Z,1.80
2018-03-21T02:22:15.235Z,1.80
2018-03-21T02:24:42.736Z,1.80
2018-03-21T02:27:10.169Z,1.70
2018-03-21T02:29:37.641Z,1.70
2018-03-21T02:32:05.079Z,1.70
2018-03-21T02:34:32.568Z,1.70
2018-03-21T02:37:00.806Z,1.60
2018-03-21T02:39:28.267Z,1.60
2018-03-21T02:41:55.743Z,1.60
2018-03-21T02:44:23.944Z,1.50
2018-03-21T02:46:51.419Z,1.50
2018-03-21T02:49:18.882Z,1.60
2018-03-21T02:51:46.354Z,1.50
2018-03-21T02:54:13.809Z,1.50
2018-03-21T02:56:41.271Z,1.50
2018-03-21T02:59:08.717Z,1.50
2018-03-21T03:01:36.174Z,1.50
2018-03-21T03:04:03.653Z,1.40
2018-03-21T03:06:31.091Z,1.40
2018-03-21T03:08:58.571Z,1.40
2018-03-21T03:11:26.032Z,1.40
2018-03-21T03:13:53.475Z,1.40
2018-03-21T03:16:20.937Z,1.30
2018-03-21T03:18:48.395Z,1.30
2018-03-21T03:21:15.859Z,1.30
2018-03-21T03:23:44.853Z,1.30
2018-03-21T03:26:12.322Z,1.30
2018-03-21T03:28:39.762Z,1.30
2018-03-21T03:31:08.001Z,1.20
2018-03-21T03:33:35.473Z,1.20
2018-03-21T03:36:02.938Z,1.20
2018-03-21T03:38:31.156Z,1.10
2018-03-21T03:40:58.614Z,1.10
2018-03-21T03:43:26.190Z,1.20
2018-03-21T03:45:53.624Z,1.20
2018-03-21T03:48:21.071Z,1.10
2018-03-21T03:50:49.286Z,1.10
2018-03-21T03:53:16.733Z,1.10
2018-03-21T03:55:44.195Z,1.10
2018-03-21T03:58:11.676Z,1.10
2018-03-21T04:00:39.148Z,1.10
2018-03-21T04:03:06.597Z,1.00
2018-03-21T04:05:34.044Z,1.00
2018-03-21T04:08:01.508Z,1.00
2018-03-21T04:10:28.971Z,1.00
2018-03-21T04:12:56.436Z,1.00
2018-03-21T04:15:24.646Z,1.00
2018-03-21T04:17:52.140Z,1.00
2018-03-21T04:20:19.578Z,1.00
2018-03-21T04:22:47.047Z,0.90
2018-03-21T04:25:14.506Z,0.90
2018-03-21T04:27:41.981Z,0.90
2018-03-21T04:30:09.430Z,0.90
2018-03-21T04:32:36.900Z,0.80
2018-03-21T04:35:05.127Z,0.70
2018-03-21T04:37:32.605Z,0.70
2018-03-21T04:40:00.048Z,0.70
2018-03-21T04:42:27.519Z,0.70
2018-03-21T04:44:54.979Z,0.60
2018-03-21T04:47:22.443Z,0.60
2018-03-21T04:49:49.915Z,0.60
2018-03-21T04:52:17.379Z,0.60
2018-03-21T04:54:45.625Z,0.50
2018-03-21T04:57:13.062Z,0.50
2018-03-21T04:59:40.541Z,0.50
2018-03-21T05:02:09.492Z,0.40
2018-03-21T05:04:36.973Z,0.50
2018-03-21T05:07:04.413Z,0.40
2018-03-21T05:09:31.989Z,0.40
2018-03-21T05:11:59.463Z,0.40
2018-03-21T05:14:26.912Z,0.40
2018-03-21T05:16:54.388Z,0.40
2018-03-21T05:19:22.608Z,0.30
2018-03-21T05:21:50.070Z,0.30
2018-03-21T05:24:17.575Z,0.30
2018-03-21T05:26:45.033Z,0.30
2018-03-21T05:29:12.455Z,0.30
2018-03-21T05:31:39.926Z,0.20
2018-03-21T05:34:07.369Z,0.20
2018-03-21T05:36:34.840Z,0.20
2018-03-21T05:39:02.344Z,0.20
2018-03-21T05:41:29.783Z,0.20
2018-03-21T05:43:57.284Z,0.20
2018-03-21T05:46:24.758Z,0.20
2018-03-21T05:48:52.221Z,0.10
2018-03-21T05:51:21.281Z,0.10
2018-03-21T05:53:48.770Z,0.10
2018-03-21T05:56:16.212Z,0.10
2018-03-21T05:58:43.680Z,0.10
2018-03-21T06:01:11.128Z,0.10
2018-03-21T06:03:38.611Z,0.10
2018-03-21T06:06:06.863Z,0.10
2018-03-21T06:08:34.312Z,0.10
2018-03-21T06:11:01.805Z,0.10
2018-03-21T06:13:30.052Z,0.10
2018-03-21T06:15:57.514Z,0.10
2018-03-21T06:18:24.973Z,0.20
2018-03-21T06:20:52.439Z,0.20
2018-03-21T06:23:19.921Z,0.20
2018-03-21T06:25:47.404Z,0.30
2018-03-21T06:28:14.884Z,0.30
2018-03-21T06:30:42.335Z,0.40
2018-03-21T06:33:09.836Z,0.40
2018-03-21T06:35:38.063Z,0.50
2018-03-21T06:38:05.533Z,0.50
2018-03-21T06:40:33.000Z,0.60
2018-03-21T06:43:00.458Z,0.70
2018-03-21T06:45:28.676Z,0.90
2018-03-21T06:47:56.143Z,0.90
2018-03-21T06:50:23.660Z,1.00
2018-03-21T06:52:51.904Z,1.10
2018-03-21T06:55:19.370Z,1.10
2018-03-21T06:57:46.816Z,1.10
2018-03-21T07:00:14.299Z,1.20
2018-03-21T07:02:41.753Z,1.20
2018-03-21T07:05:09.225Z,1.20
2018-03-21T07:07:37.452Z,1.30
2018-03-21T07:10:04.932Z,1.30
2018-03-21T07:12:32.369Z,1.30
2018-03-21T07:15:11.781Z,1.40
2018-03-21T07:17:39.224Z,1.40
2018-03-21T07:20:06.701Z,1.50
2018-03-21T07:22:34.138Z,1.60
2018-03-21T07:25:01.622Z,1.60
2018-03-21T07:27:29.068Z,1.70
2018-03-21T07:29:56.555Z,1.70
2018-03-21T07:32:24.007Z,1.80
2018-03-21T07:34:51.480Z,1.90
2018-03-21T07:37:18.958Z,1.90
2018-03-21T07:39:47.194Z,2.00
2018-03-21T07:42:14.676Z,2.00
2018-03-21T07:44:42.940Z,2.10
2018-03-21T07:47:10.419Z,2.10
2018-03-21T07:49:38.629Z,2.20
2018-03-21T07:52:06.100Z,2.20
2018-03-21T07:54:33.559Z,2.30
2018-03-21T07:57:01.045Z,2.40
2018-03-21T07:59:28.497Z,2.40
2018-03-21T08:01:55.973Z,2.50
2018-03-21T08:04:24.187Z,2.60
2018-03-21T08:06:51.659Z,2.60
2018-03-21T08:09:19.115Z,2.70
2018-03-21T08:11:46.603Z,2.70
2018-03-21T08:14:14.847Z,2.80
2018-03-21T08:16:42.337Z,2.80
2018-03-21T08:19:10.556Z,2.90
2018-03-21T08:21:38.005Z,2.90
2018-03-21T08:24:05.477Z,2.90
2018-03-21T08:26:32.948Z,3.00
2018-03-21T08:29:00.426Z,3.10
2018-03-21T08:31:28.277Z,3.20
2018-03-21T08:33:55.770Z,3.20
2018-03-21T08:36:23.997Z,3.30
2018-03-21T08:38:51.467Z,3.30
2018-03-21T08:41:19.696Z,3.40
2018-03-21T08:43:47.168Z,3.40
2018-03-21T08:46:14.616Z,3.40
2018-03-21T08:48:42.088Z,3.50
2018-03-21T08:51:09.547Z,3.60
2018-03-21T08:53:37.020Z,3.70
2018-03-21T08:56:04.578Z,3.70
2018-03-21T08:58:32.015Z,3.80
2018-03-21T09:00:59.492Z,3.80
2018-03-21T09:03:26.949Z,3.80
2018-03-21T09:05:54.444Z,3.90
2018-03-21T09:08:22.664Z,3.90
2018-03-21T09:10:50.147Z,3.90
2018-03-21T09:13:17.603Z,4.00
2018-03-21T09:15:45.072Z,4.10
2018-03-21T09:18:13.328Z,4.40
2018-03-21T09:20:40.764Z,4.40
2018-03-21T09:23:08.238Z,4.50
2018-03-21T09:25:35.745Z,4.70
2018-03-21T09:28:03.216Z,4.80
2018-03-21T09:30:30.673Z,4.90
2018-03-21T09:32:58.159Z,4.90
2018-03-21T09:35:25.616Z,5.00
2018-03-21T09:37:53.051Z,5.00
2018-03-21T09:40:20.536Z,5.10
2018-03-21T09:42:47.995Z,5.10
2018-03-21T09:45:15.463Z,5.10
2018-03-21T09:47:43.716Z,5.30
2018-03-21T09:50:11.190Z,5.30
2018-03-21T09:52:38.629Z,5.40
2018-03-21T09:55:06.104Z,5.50
2018-03-21T09:57:33.541Z,5.50
2018-03-21T10:00:01.034Z,5.60
2018-03-21T10:02:29.252Z,5.60
2018-03-21T10:04:56.692Z,5.60
2018-03-21T10:07:24.187Z,5.70
2018-03-21T10:09:51.634Z,5.80
2018-03-21T10:12:19.097Z,5.90
2018-03-21T10:14:46.545Z,6.00
2018-03-21T10:17:14.023Z,6.10
2018-03-21T10:19:41.473Z,6.10
2018-03-21T10:22:08.935Z,6.20
2018-03-21T10:24:36.388Z,6.30
2018-03-21T10:27:03.883Z,6.40
2018-03-21T10:29:31.339Z,6.60
2018-03-21T10:31:58.774Z,6.80
2018-03-21T10:34:26.247Z,6.90
2018-03-21T10:36:53.818Z,7.00
2018-03-21T10:39:21.303Z,7.20
2018-03-21T10:41:48.756Z,7.50
2018-03-21T10:44:16.224Z,7.70
2018-03-21T10:46:43.672Z,7.80
2018-03-21T10:49:11.113Z,7.90
2018-03-21T10:51:38.588Z,7.90
2018-03-21T10:54:06.185Z,7.80
2018-03-21T10:56:33.632Z,7.70
2018-03-21T10:59:01.122Z,7.50
2018-03-21T11:01:34.299Z,7.30
2018-03-21T11:04:02.528Z,7.00
2018-03-21T11:06:29.978Z,7.00
2018-03-21T11:08:57.439Z,7.10
2018-03-21T11:11:24.908Z,7.30
2018-03-21T11:13:52.358Z,7.60
2018-03-21T11:16:19.815Z,7.60
2018-03-21T11:18:47.328Z,7.70
2018-03-21T11:21:14.848Z,8.00
2018-03-21T11:23:43.136Z,8.50
2018-03-21T11:26:11.426Z,8.70
2018-03-21T11:28:39.719Z,8.90
2018-03-21T11:31:07.224Z,8.90
2018-03-21T11:33:34.752Z,9.10
2018-03-21T11:36:02.271Z,9.30
2018-03-21T11:38:30.528Z,9.40
2018-03-21T11:40:58.811Z,9.20
2018-03-21T11:43:26.320Z,9.20
2018-03-21T11:45:53.839Z,9.30
2018-03-21T11:48:22.104Z,9.80
2018-03-21T11:50:50.382Z,10.00
2018-03-21T11:53:18.783Z,10.10
2018-03-21T11:55:46.284Z,10.10
2018-03-21T11:58:13.807Z,10.10
2018-03-21T12:00:41.323Z,10.10
2018-03-21T12:03:09.612Z,10.00
2018-03-21T12:05:37.888Z,9.80
2018-03-21T12:08:06.154Z,9.60
2018-03-21T12:10:34.435Z,9.40
2018-03-21T12:13:02.712Z,9.20
2018-03-21T12:15:30.260Z,9.20
2018-03-21T12:17:58.545Z,9.10
2018-03-21T12:20:26.063Z,9.00
2018-03-21T12:22:53.572Z,9.10
2018-03-21T12:25:21.079Z,9.10
2018-03-21T12:27:48.589Z,9.10
2018-03-21T12:30:16.082Z,9.40
2018-03-21T12:32:43.616Z,9.70
2018-03-21T12:35:11.124Z,9.90
2018-03-21T12:37:38.655Z,10.20
2018-03-21T12:40:06.188Z,10.30
2018-03-21T12:42:33.717Z,10.50
2018-03-21T12:45:02.000Z,10.90
2018-03-21T12:47:29.531Z,10.90
2018-03-21T12:49:57.050Z,11.10
2018-03-21T12:52:24.575Z,11.30
2018-03-21T12:54:52.077Z,11.40
2018-03-21T12:57:19.644Z,11.50
2018-03-21T12:59:47.170Z,11.30
2018-03-21T13:02:14.668Z,11.30
2018-03-21T13:04:42.204Z,11.50
2018-03-21T13:07:09.714Z,11.70
2018-03-21T13:09:38.006Z,11.90
2018-03-21T13:12:05.509Z,11.80
2018-03-21T13:14:33.029Z,11.90
2018-03-21T13:17:00.524Z,11.90
2018-03-21T13:19:28.072Z,11.90
2018-03-21T13:21:55.588Z,11.80
2018-03-21T13:24:23.108Z,11.90
2018-03-21T13:26:50.638Z,12.00
2018-03-21T13:29:18.200Z,12.10
2018-03-21T13:31:45.717Z,12.30
2018-03-21T13:34:13.223Z,12.30
2018-03-21T13:36:40.769Z,12.40
2018-03-21T13:39:08.278Z,12.50
2018-03-21T13:41:36.571Z,12.50
2018-03-21T13:44:04.072Z,12.50
2018-03-21T13:46:31.604Z,12.60
2018-03-21T13:48:59.140Z,12.60
2018-03-21T13:51:26.671Z,12.60
2018-03-21T13:53:54.229Z,12.70
2018-03-21T13:56:21.752Z,12.60
2018-03-21T13:58:49.289Z,12.60
2018-03-21T14:01:16.784Z,12.70
2018-03-21T14:03:44.324Z,12.70
2018-03-21T14:06:11.834Z,12.60
2018-03-21T14:08:40.134Z,12.60
2018-03-21T14:11:07.628Z,12.50
2018-03-21T14:13:35.164Z,12.50
2018-03-21T14:16:02.681Z,12.50
2018-03-21T14:18:31.022Z,12.40
2018-03-21T14:20:58.520Z,12.40
2018-03-21T14:23:26.829Z,12.40
2018-03-21T14:25:54.333Z,12.40
2018-03-21T14:28:22.608Z,12.40
2018-03-21T14:30:50.899Z,12.30
2018-03-21T14:33:19.196Z,12.40
2018-03-21T14:35:46.726Z,12.30
2018-03-21T14:38:14.998Z,12.30
2018-03-21T14:40:43.340Z,12.20
2018-03-21T14:43:10.905Z,12.20
2018-03-21T14:45:38.440Z,12.20
2018-03-21T14:48:05.963Z,12.10
2018-03-21T14:50:34.265Z,12.00
2018-03-21T14:53:01.762Z,12.00
2018-03-21T14:55:29.306Z,12.00
2018-03-21T14:57:56.814Z,11.90
2018-03-21T15:00:24.604Z,11.80
2018-03-21T15:02:52.115Z,11.70
2018-03-21T15:05:19.652Z,11.70
2018-03-21T15:07:47.167Z,11.70
2018-03-21T15:10:14.672Z,11.60
2018-03-21T15:12:42.975Z,11.50
2018-03-21T15:15:11.269Z,11.50
2018-03-21T15:17:38.804Z,11.50
2018-03-21T15:20:07.103Z,11.20
2018-03-21T15:22:34.635Z,11.20
2018-03-21T15:25:02.899Z,11.00
2018-03-21T15:27:30.571Z,10.90
2018-03-21T15:29:58.852Z,10.80
2018-03-21T15:32:27.147Z,10.70
2018-03-21T15:34:54.681Z,10.60
2018-03-21T15:37:23.010Z,10.50
2018-03-21T15:39:50.556Z,10.50
2018-03-21T15:42:18.050Z,10.40
2018-03-21T15:44:45.570Z,10.30
2018-03-21T15:47:13.121Z,10.20
2018-03-21T15:49:40.656Z,10.00
2018-03-21T15:52:08.948Z,9.80
2018-03-21T15:54:36.452Z,9.80
2018-03-21T15:57:03.971Z,9.70
2018-03-21T15:59:31.480Z,9.60
2018-03-21T16:01:59.010Z,9.50
2018-03-21T16:04:26.508Z,9.50
2018-03-21T16:06:54.800Z,9.20
2018-03-21T16:09:23.092Z,9.10
2018-03-21T16:11:50.672Z,9.10
2018-03-21T16:14:18.175Z,9.00
2018-03-21T16:16:46.440Z,8.90
2018-03-21T16:19:13.983Z,8.90
2018-03-21T16:21:41.495Z,8.80
2018-03-21T16:24:09.062Z,8.80
2018-03-21T16:26:36.575Z,8.70
2018-03-21T16:29:04.120Z,8.60
2018-03-21T16:31:31.620Z,8.50
2018-03-21T16:33:59.158Z,8.50
2018-03-21T16:36:27.433Z,8.40
2018-03-21T16:38:55.724Z,8.30
2018-03-21T16:41:23.257Z,8.30
2018-03-21T16:43:51.529Z,8.30
2018-03-21T16:46:19.845Z,8.20
2018-03-21T16:48:47.355Z,8.20
2018-03-21T16:51:14.928Z,8.20
2018-03-21T16:53:42.450Z,8.20
2018-03-21T16:56:09.969Z,8.20
2018-03-21T16:58:37.465Z,8.00
2018-03-21T17:01:05.010Z,8.00
2018-03-21T17:03:32.580Z,7.90
2018-03-21T17:06:00.125Z,7.90
2018-03-21T17:08:27.656Z,7.90
2018-03-21T17:10:55.941Z,7.80
2018-03-21T17:13:23.455Z,7.80
2018-03-21T17:15:50.961Z,7.80
2018-03-21T17:18:18.642Z,7.80
2018-03-21T17:20:46.138Z,7.70
2018-03-21T17:23:13.685Z,7.70
2018-03-21T17:25:41.135Z,7.60
2018-03-21T17:28:08.665Z,7.60
2018-03-21T17:30:36.146Z,7.50
2018-03-21T17:33:03.578Z,7.40
2018-03-21T17:35:31.072Z,7.40
2018-03-21T17:37:58.533Z,7.40
2018-03-21T17:40:26.770Z,7.30
2018-03-21T17:42:54.227Z,7.20
2018-03-21T17:45:21.751Z,7.20
2018-03-21T17:47:49.984Z,7.00
2018-03-21T17:50:17.464Z,7.00
2018-03-21T17:52:46.409Z,6.80
2018-03-21T17:55:13.905Z,6.70
2018-03-21T17:57:41.403Z,6.70
2018-03-21T18:00:08.924Z,6.60
2018-03-21T18:02:36.410Z,6.50
2018-03-21T18:05:03.872Z,6.50
2018-03-21T18:07:31.360Z,6.40
2018-03-21T18:09:58.819Z,6.30
2018-03-21T18:12:26.293Z,6.30
2018-03-21T18:14:54.021Z,6.20
2018-03-21T18:17:21.506Z,6.20
2018-03-21T18:19:48.952Z,6.20
2018-03-21T18:22:16.421Z,6.10
2018-03-21T18:24:43.864Z,6.10
2018-03-21T18:27:11.352Z,6.10
2018-03-21T18:29:39.556Z,6.00
2018-03-21T18:32:07.087Z,5.90
2018-03-21T18:34:34.555Z,6.00
2018-03-21T18:37:02.817Z,5.80
2018-03-21T18:39:30.288Z,5.80
2018-03-21T18:41:58.558Z,5.60
2018-03-21T18:44:26.971Z,5.60
2018-03-21T18:46:54.435Z,5.60
2018-03-21T18:49:21.918Z,5.50
2018-03-21T18:51:49.364Z,5.50
2018-03-21T18:54:16.860Z,5.50
2018-03-21T18:56:45.085Z,5.40
2018-03-21T18:59:12.561Z,5.40
2018-03-21T19:01:40.025Z,5.40
2018-03-21T19:04:07.500Z,5.40
2018-03-21T19:06:35.756Z,5.40
2018-03-21T19:09:04.078Z,5.30
2018-03-21T19:11:31.567Z,5.30
2018-03-21T19:13:59.079Z,5.20
2018-03-21T19:16:27.309Z,5.20
2018-03-21T19:18:54.784Z,5.20
2018-03-21T19:21:22.248Z,5.10
2018-03-21T19:23:50.528Z,5.10
2018-03-21T19:26:18.753Z,5.10
2018-03-21T19:28:46.264Z,5.00
2018-03-21T19:31:14.493Z,4.90
2018-03-21T19:33:41.971Z,4.90
2018-03-21T19:36:09.464Z,4.90
2018-03-21T19:38:36.960Z,4.90
2018-03-21T19:41:04.452Z,4.80
2018-03-21T19:43:31.935Z,4.70
2018-03-21T19:46:00.189Z,4.60
2018-03-21T19:48:27.632Z,4.60
2018-03-21T19:50:55.143Z,4.60
2018-03-21T19:53:22.636Z,4.50
2018-03-21T19:55:50.164Z,4.50
2018-03-21T19:58:17.619Z,4.40
2018-03-21T20:00:45.089Z,4.40
2018-03-21T20:03:12.613Z,4.40
2018-03-21T20:05:40.143Z,4.30
2018-03-21T20:08:07.573Z,4.30
2018-03-21T20:10:35.045Z,4.30
2018-03-21T20:13:02.548Z,4.20
2018-03-21T20:15:30.169Z,4.20
2018-03-21T20:17:58.447Z,4.20
2018-03-21T20:20:25.906Z,4.10
2018-03-21T20:22:54.192Z,4.10
2018-03-21T20:25:22.418Z,4.10
2018-03-21T20:27:49.905Z,4.10
2018-03-21T20:30:17.377Z,4.10
2018-03-21T20:32:45.670Z,4.20
2018-03-21T20:35:13.117Z,4.10
2018-03-21T20:37:41.350Z,4.10
2018-03-21T20:40:08.839Z,4.10
2018-03-21T20:42:37.074Z,4.00
2018-03-21T20:45:04.795Z,4.00
2018-03-21T20:47:32.533Z,4.00
2018-03-21T20:50:00.043Z,4.00
2018-03-21T20:52:27.504Z,3.90
2018-03-21T20:54:54.989Z,3.90
2018-03-21T20:57:22.448Z,3.80
2018-03-21T20:59:49.948Z,3.80
2018-03-21T21:02:17.404Z,3.80
2018-03-21T21:04:44.890Z,3.70
2018-03-21T21:07:12.357Z,3.70
2018-03-21T21:09:39.837Z,3.70
2018-03-21T21:12:07.286Z,3.70
2018-03-21T21:14:34.817Z,3.70
2018-03-21T21:17:02.318Z,3.70
2018-03-21T21:19:29.768Z,3.70
2018-03-21T21:21:58.019Z,3.60
2018-03-21T21:24:25.480Z,3.60
2018-03-21T21:26:52.952Z,3.60
2018-03-21T21:29:20.426Z,3.60
2018-03-21T21:31:48.687Z,3.50
2018-03-21T21:34:16.917Z,3.50
2018-03-21T21:36:44.599Z,3.50
2018-03-21T21:39:12.072Z,3.50
2018-03-21T21:41:39.537Z,3.50
2018-03-21T21:44:07.771Z,3.40
2018-03-21T21:46:35.228Z,3.40
2018-03-21T21:49:02.747Z,3.40
2018-03-21T21:51:30.980Z,3.40
2018-03-21T21:53:58.456Z,3.30
2018-03-21T21:56:26.780Z,3.30
2018-03-21T21:58:54.251Z,3.30
2018-03-21T22:01:21.721Z,3.30
2018-03-21T22:03:49.209Z,3.20
2018-03-21T22:06:17.464Z,3.20
2018-03-21T22:08:44.977Z,3.10
2018-03-21T22:11:12.436Z,3.20
2018-03-21T22:13:39.957Z,3.20
2018-03-21T22:16:08.191Z,3.10
2018-03-21T22:18:35.660Z,3.10
2018-03-21T22:21:03.112Z,3.10
2018-03-21T22:23:30.576Z,3.00
2018-03-21T22:25:58.069Z,3.00
2018-03-21T22:28:25.569Z,3.00
2018-03-21T22:30:53.035Z,2.90
2018-03-21T22:33:20.911Z,2.90
2018-03-21T22:35:48.354Z,2.90
2018-03-21T22:38:15.826Z,2.80
2018-03-21T22:40:43.587Z,2.80
2018-03-21T22:43:11.090Z,2.80
2018-03-21T22:45:38.527Z,2.90
2018-03-21T22:48:06.081Z,2.90
2018-03-21T22:50:34.309Z,2.90
2018-03-21T22:53:01.785Z,2.90
2018-03-21T22:55:29.243Z,2.90
2018-03-21T22:57:56.760Z,2.80
2018-03-21T23:00:24.222Z,2.80
2018-03-21T23:02:51.663Z,2.80
2018-03-21T23:05:19.128Z,2.80
2018-03-21T23:07:46.575Z,2.80
2018-03-21T23:10:14.045Z,2.80
2018-03-21T23:12:41.493Z,2.70
2018-03-21T23:15:08.960Z,2.70
2018-03-21T23:17:36.409Z,2.70
2018-03-21T23:20:03.895Z,2.60
2018-03-21T23:22:31.364Z,2.60
2018-03-21T23:24:58.851Z,2.60
2018-03-21T23:27:27.159Z,2.60
2018-03-21T23:29:54.763Z,2.50
2018-03-21T23:32:22.510Z,2.60
2018-03-21T23:34:49.988Z,2.50
2018-03-21T23:37:17.698Z,2.50
2018-03-21T23:39:45.239Z,2.50
2018-03-21T23:42:12.802Z,2.50
2018-03-21T23:44:40.300Z,2.50
2018-03-21T23:47:07.773Z,2.50
2018-03-21T23:49:36.011Z,2.60
2018-03-21T23:52:03.486Z,2.60
2018-03-21T23:54:30.957Z,2.60
2018-03-21T23:56:58.437Z,2.60
2018-03-21T23:59:26.655Z,2.60
